Time;durP1;ratioP1;P1;durP2;ratioP2;P2;SDS_P1;SDS_P2;PMS_P1;PMS_P2;Temp;Humidity;BMP_temperature;BMP_pressure;BME280_temperature;BME280_humidity;BME280_pressure;Samples;Min_cycle;Max_cycle;Signal;HPM_P1;HPM_P2
2023/05/01 00:00:19;;;;;;;;;;;;;;;20.16;47.28;101650.94;5008837;28;4169;-71
2023/05/01 00:02:51;;;;;;;;;;;;;;;20.16;47.15;101650.94;5012437;28;4147;-72
2023/05/01 00:05:17;;;;;;;;;;;;;;;20.17;47.25;101649.56;5014820;28;4045;-72
2023/05/01 00:07:44;;;;;;;;;;;;;;;20.17;47.28;101652.44;5007813;28;4192;-72
2023/05/01 00:10:10;;;;;;;;;;;;;;;20.19;47.19;101655.44;5007690;28;4189;-71
2023/05/01 00:12:37;;;;;;;;;;;;;;;20.20;47.22;101646.19;5008749;28;4096;-72
2023/05/01 00:15:03;;;;;;;;;;;;;;;20.22;47.25;101642.66;5013909;28;4106;-71
2023/05/01 00:17:30;;;;;;;;;;;;;;;20.22;47.25;101649.16;5005445;28;4369;-72
2023/05/01 00:19:57;;;;;;;;;;;;;;;20.23;47.42;101649.94;5012684;28;4103;-72
2023/05/01 00:22:23;;;;;;;;;;;;;;;20.23;47.52;101644.19;5008678;28;4352;-70
2023/05/01 00:24:50;;;;;;;;;;;;;;;20.23;47.57;101649.94;5007076;28;3998;-70
2023/05/01 00:27:16;;;;;;;;;;;;;;;20.23;47.56;101644.19;5009364;28;4157;-70
2023/05/01 00:29:43;;;;;;;;;;;;;;;20.22;47.46;101639.78;5009615;28;4054;-71
2023/05/01 00:32:09;;;;;;;;;;;;;;;20.22;47.72;101642.66;5009244;28;3950;-71
2023/05/01 00:34:36;;;;;;;;;;;;;;;20.23;47.77;101644.19;5004625;28;6013;-71
2023/05/01 00:37:02;;;;;;;;;;;;;;;20.22;47.53;101643.41;5016892;28;3946;-71
2023/05/01 00:39:28;;;;;;;;;;;;;;;20.23;47.47;101632.69;5008182;28;5018;-71
2023/05/01 00:41:56;;;;;;;;;;;;;;;20.21;47.65;101636.19;5010021;28;4322;-71
2023/05/01 00:44:22;;;;;;;;;;;;;;;20.20;47.58;101628.16;5011792;28;4194;-70
2023/05/01 00:46:49;;;;;;;;;;;;;;;20.21;47.68;101629.69;5018847;28;4121;-70
2023/05/01 00:49:16;;;;;;;;;;;;;;;20.20;47.62;101628.16;5003225;28;4244;-69
2023/05/01 00:51:43;;;;;;;;;;;;;;;20.20;47.83;101625.28;5013743;28;4075;-71
2023/05/01 00:54:09;;;;;;;;;;;;;;;20.19;47.76;101626.69;5008850;28;4311;-70
2023/05/01 00:56:36;;;;;;;;;;;;;;;20.18;47.89;101622.28;5002114;28;4086;-71
2023/05/01 00:59:03;;;;;;;;;;;;;;;20.18;47.76;101613.66;5007915;28;5139;-70
2023/05/01 01:01:29;;;;;;;;;;;;;;;20.17;47.88;101612.91;5005161;28;4108;-71
2023/05/01 01:03:56;;;;;;;;;;;;;;;20.17;47.86;101612.19;5008693;28;4218;-70
2023/05/01 01:06:26;;;;;;;;;;;;;;;20.17;47.71;101617.94;5009227;28;4136;-71
2023/05/01 01:09:19;;;;;;;;;;;;;;;20.17;47.62;101615.06;5010821;28;4549;-71
2023/05/01 01:11:56;;;;;;;;;;;;;;;20.15;47.79;101614.94;5006023;28;5719;-71
2023/05/01 01:14:46;;;;;;;;;;;;;;;20.15;47.73;101609.19;5006168;28;4723;-70
2023/05/01 01:17:16;;;;;;;;;;;;;;;20.15;47.66;101607.03;4992270;28;4054;-71
2023/05/01 01:19:55;;;;;;;;;;;;;;;20.14;47.70;101613.44;5002298;28;4209;-72
2023/05/01 01:22:23;;;;;;;;;;;;;;;20.13;47.67;101609.06;5006672;28;4188;-71
2023/05/01 01:24:56;;;;;;;;;;;;;;;20.12;47.71;101613.31;5013709;28;4196;-72
2023/05/01 01:27:29;;;;;;;;;;;;;;;20.12;47.70;101604.69;5014263;28;4535;-72
2023/05/01 01:30:06;;;;;;;;;;;;;;;20.11;47.60;101600.31;4999620;28;4037;-72
2023/05/01 01:32:53;;;;;;;;;;;;;;;20.09;47.63;101593.06;5014990;28;4345;-72
2023/05/01 01:35:19;;;;;;;;;;;;;;;20.09;47.56;101598.09;5006506;28;4060;-71
2023/05/01 01:37:47;;;;;;;;;;;;;;;20.08;47.58;101599.44;5015050;28;4259;-72
2023/05/01 01:40:15;;;;;;;;;;;;;;;20.07;47.57;101601.56;5004946;28;3988;-71
2023/05/01 01:42:45;;;;;;;;;;;;;;;20.06;47.62;101594.31;4999783;28;4186;-72
2023/05/01 01:45:22;;;;;;;;;;;;;;;20.07;47.48;101578.56;4991060;28;4135;-71
2023/05/01 01:47:48;;;;;;;;;;;;;;;20.05;47.53;101589.22;5040599;28;4394;-72
2023/05/01 01:50:15;;;;;;;;;;;;;;;20.04;47.59;101594.22;5011358;28;4067;-72
2023/05/01 01:52:41;;;;;;;;;;;;;;;20.04;47.51;101590.56;5014713;28;4017;-72
2023/05/01 01:55:09;;;;;;;;;;;;;;;20.05;47.43;101589.94;5008563;28;4220;-72
2023/05/01 01:57:38;;;;;;;;;;;;;;;20.02;47.41;101573.97;5009865;28;4136;-71
2023/05/01 02:00:07;;;;;;;;;;;;;;;20.02;47.47;101584.69;5012071;28;4054;-72
2023/05/01 02:02:38;;;;;;;;;;;;;;;20.03;47.38;101581.19;5006081;28;4288;-72
2023/05/01 02:05:08;;;;;;;;;;;;;;;20.01;47.36;101581.06;5000002;28;4058;-72
2023/05/01 02:07:34;;;;;;;;;;;;;;;20.01;47.45;101575.31;5012464;28;4199;-72
2023/05/01 02:10:02;;;;;;;;;;;;;;;20.02;47.38;101568.22;5048552;28;4104;-72
2023/05/01 02:12:28;;;;;;;;;;;;;;;20.02;47.30;101576.06;5012653;28;3989;-72
2023/05/01 02:14:55;;;;;;;;;;;;;;;20.02;47.24;101564.56;5017277;28;4203;-72
2023/05/01 02:17:21;;;;;;;;;;;;;;;20.05;47.29;101563.34;5013658;28;4120;-72
2023/05/01 02:19:47;;;;;;;;;;;;;;;20.05;47.09;101560.47;5024964;28;3970;-72
2023/05/01 02:22:15;;;;;;;;;;;;;;;20.07;47.26;101552.69;5012162;28;4098;-72
2023/05/01 02:24:42;;;;;;;;;;;;;;;20.08;47.31;101559.94;5017067;28;4269;-72
2023/05/01 02:27:16;;;;;;;;;;;;;;;20.09;47.33;101549.94;5011821;28;3969;-72
2023/05/01 02:29:43;;;;;;;;;;;;;;;20.09;47.52;101541.31;5042284;28;4063;-72
2023/05/01 02:32:09;;;;;;;;;;;;;;;20.09;47.53;101547.06;5014981;28;4079;-72
2023/05/01 02:34:36;;;;;;;;;;;;;;;20.09;47.40;101543.44;4994821;28;4012;-72
2023/05/01 02:37:06;;;;;;;;;;;;;;;20.09;47.58;101544.19;5012025;28;4373;-72
2023/05/01 02:39:33;;;;;;;;;;;;;;;20.09;47.55;101526.94;5010850;28;3909;-71
2023/05/01 02:42:02;;;;;;;;;;;;;;;20.08;47.55;101518.94;5001590;28;4149;-72
2023/05/01 02:44:29;;;;;;;;;;;;;;;20.07;47.48;101517.44;5012798;28;4043;-71
2023/05/01 02:46:56;;;;;;;;;;;;;;;20.07;47.38;101523.19;4990454;28;4500;-72
2023/05/01 02:49:23;;;;;;;;;;;;;;;20.06;47.54;101522.44;5002298;28;4190;-72
2023/05/01 02:51:49;;;;;;;;;;;;;;;20.08;47.58;101518.94;5008379;28;4522;-71
2023/05/01 02:54:16;;;;;;;;;;;;;;;20.11;47.52;101516.91;5017248;28;4196;-71
2023/05/01 02:56:42;;;;;;;;;;;;;;;20.12;47.58;101512.69;5021910;28;4076;-72
2023/05/01 02:59:09;;;;;;;;;;;;;;;20.12;47.64;101512.69;5013638;28;4167;-72
2023/05/01 03:01:35;;;;;;;;;;;;;;;20.13;47.55;101506.28;5008650;28;5023;-72
2023/05/01 03:04:02;;;;;;;;;;;;;;;20.15;47.63;101502.78;5007595;28;4139;-72
2023/05/01 03:06:29;;;;;;;;;;;;;;;20.15;47.52;101500.66;5007006;28;4342;-72
2023/05/01 03:08:56;;;;;;;;;;;;;;;20.16;47.47;101507.16;5017525;28;4320;-72
2023/05/01 03:11:23;;;;;;;;;;;;;;;20.16;47.75;101489.88;5009308;28;4167;-72
2023/05/01 03:13:50;;;;;;;;;;;;;;;20.16;47.61;101495.66;5012592;28;4754;-73
2023/05/01 03:16:16;;;;;;;;;;;;;;;20.16;47.68;101495.66;5015358;28;4514;-71
2023/05/01 03:18:42;;;;;;;;;;;;;;;20.15;47.56;101489.16;5009773;28;4489;-72
2023/05/01 03:21:09;;;;;;;;;;;;;;;20.16;47.52;101502.16;5010105;28;4385;-72
2023/05/01 03:23:37;;;;;;;;;;;;;;;20.17;47.61;101492.16;5009557;28;4118;-73
2023/05/01 03:26:03;;;;;;;;;;;;;;;20.18;47.60;101487.13;5010740;28;4208;-72
2023/05/01 03:28:30;;;;;;;;;;;;;;;20.18;47.68;101495.75;5007600;28;4019;-72
2023/05/01 03:30:56;;;;;;;;;;;;;;;20.21;47.62;101492.38;5006155;28;4022;-72
2023/05/01 03:33:23;;;;;;;;;;;;;;;20.19;47.46;101492.25;5015006;28;4040;-72
2023/05/01 03:35:57;;;;;;;;;;;;;;;20.21;47.79;101491.63;5010502;28;4544;-72
2023/05/01 03:38:25;;;;;;;;;;;;;;;20.21;47.58;101498.13;5011723;28;4279;-72
2023/05/01 03:41:11;;;;;;;;;;;;;;;20.21;47.81;101488.75;5008801;28;4365;-72
2023/05/01 03:43:58;;;;;;;;;;;;;;;20.21;47.76;101491.63;5013806;28;4062;-72
2023/05/01 03:46:31;;;;;;;;;;;;;;;20.22;47.71;101487.38;5013748;28;4295;-72
2023/05/01 03:48:58;;;;;;;;;;;;;;;20.21;47.68;101491.63;5015583;28;3919;-70
2023/05/01 03:51:26;;;;;;;;;;;;;;;20.22;47.56;101493.13;5017160;28;4252;-72
2023/05/01 03:53:57;;;;;;;;;;;;;;;20.23;47.72;101494.63;5017937;28;4578;-72
2023/05/01 03:56:25;;;;;;;;;;;;;;;20.23;47.65;101483.13;5016615;28;4155;-72
2023/05/01 03:58:52;;;;;;;;;;;;;;;20.24;47.72;101490.38;5011530;28;4204;-72
2023/05/01 04:01:18;;;;;;;;;;;;;;;20.25;47.93;101491.88;5010040;28;4196;-72
2023/05/01 04:03:47;;;;;;;;;;;;;;;20.23;47.82;101489.63;5007558;28;4188;-72
2023/05/01 04:06:13;;;;;;;;;;;;;;;20.24;47.81;101488.22;5008616;28;4107;-72
2023/05/01 04:08:40;;;;;;;;;;;;;;;20.23;47.92;101488.88;5011916;28;4108;-72
2023/05/01 04:11:06;;;;;;;;;;;;;;;20.24;47.89;101478.88;5015937;28;4549;-72
2023/05/01 04:13:33;;;;;;;;;;;;;;;20.24;47.78;101476.00;5010936;28;4154;-72
2023/05/01 04:16:00;;;;;;;;;;;;;;;20.23;47.82;101480.25;5009356;28;4068;-72
2023/05/01 04:18:27;;;;;;;;;;;;;;;20.25;47.83;101480.38;5002609;28;4165;-72
2023/05/01 04:20:57;;;;;;;;;;;;;;;20.24;47.61;101467.34;5016430;28;4201;-72
2023/05/01 04:23:23;;;;;;;;;;;;;;;20.25;47.78;101460.25;5015689;28;4135;-72
2023/05/01 04:25:52;;;;;;;;;;;;;;;20.25;47.80;101468.88;5006015;28;5280;-73
2023/05/01 04:28:19;;;;;;;;;;;;;;;20.26;47.59;101465.34;5024345;28;4072;-72
2023/05/01 04:30:45;;;;;;;;;;;;;;;20.26;47.67;101476.09;5006916;28;3996;-72
2023/05/01 04:33:12;;;;;;;;;;;;;;;20.26;47.83;101470.34;5010303;28;4037;-71
2023/05/01 04:35:39;;;;;;;;;;;;;;;20.26;47.81;101465.34;5004574;28;3964;-71
2023/05/01 04:38:06;;;;;;;;;;;;;;;20.27;47.89;101466.09;5019840;28;4152;-67
2023/05/01 04:40:32;;;;;;;;;;;;;;;20.25;47.65;101463.13;5017741;28;4450;-67
2023/05/01 04:42:59;;;;;;;;;;;;;;;20.27;47.67;101466.84;5013325;28;3970;-67
2023/05/01 04:45:25;;;;;;;;;;;;;;;20.27;47.79;101460.34;5008623;28;4171;-67
2023/05/01 04:47:53;;;;;;;;;;;;;;;20.27;47.75;101466.09;5020532;28;3927;-67
2023/05/01 04:50:19;;;;;;;;;;;;;;;20.29;47.77;101463.31;5004393;28;4275;-67
2023/05/01 04:52:46;;;;;;;;;;;;;;;20.29;47.97;101464.09;5017398;28;4110;-67
2023/05/01 04:55:12;;;;;;;;;;;;;;;20.30;47.73;101459.09;5005853;28;4180;-67
2023/05/01 04:57:56;;;;;;;;;;;;;;;20.30;47.79;101459.09;5005632;28;4094;-67
2023/05/01 05:00:23;;;;;;;;;;;;;;;20.30;47.84;101459.09;5031183;28;4314;-67
2023/05/01 05:02:53;;;;;;;;;;;;;;;20.30;47.86;101459.81;5015086;28;4028;-67
2023/05/01 05:05:20;;;;;;;;;;;;;;;20.29;47.92;101457.56;5011780;28;4136;-67
2023/05/01 05:07:47;;;;;;;;;;;;;;;20.29;47.89;101451.81;5011962;28;4111;-67
2023/05/01 05:10:22;;;;;;;;;;;;;;;20.30;47.84;101447.56;5011533;28;4175;-66
2023/05/01 05:13:02;;;;;;;;;;;;;;;20.28;47.66;101453.97;5013469;28;4213;-67
2023/05/01 05:15:28;;;;;;;;;;;;;;;20.30;47.95;101447.56;5012275;28;4305;-67
2023/05/01 05:17:55;;;;;;;;;;;;;;;20.29;47.96;101440.31;5008572;28;4080;-67
2023/05/01 05:20:23;;;;;;;;;;;;;;;20.30;48.04;101436.81;5021509;28;4290;-67
2023/05/01 05:22:49;;;;;;;;;;;;;;;20.31;47.76;101440.44;5009047;28;4495;-67
2023/05/01 05:25:20;;;;;;;;;;;;;;;20.32;47.80;101432.53;5012141;28;4181;-67
2023/05/01 05:27:46;;;;;;;;;;;;;;;20.32;47.88;101436.19;5007895;28;4039;-67
2023/05/01 05:30:13;;;;;;;;;;;;;;;20.35;47.85;101437.03;5009560;28;4203;-67
2023/05/01 05:32:39;;;;;;;;;;;;;;;20.34;47.88;101430.56;5008663;28;4207;-67
2023/05/01 05:35:06;;;;;;;;;;;;;;;20.32;47.76;101421.81;5014538;28;4131;-67
2023/05/01 05:37:32;;;;;;;;;;;;;;;20.33;47.82;101426.16;5004693;28;4043;-67
2023/05/01 05:39:59;;;;;;;;;;;;;;;20.32;47.97;101424.69;5014809;28;4193;-67
2023/05/01 05:42:28;;;;;;;;;;;;;;;20.32;47.73;101421.81;5013672;28;4450;-67
2023/05/01 05:44:58;;;;;;;;;;;;;;;20.33;47.78;101423.28;5016043;28;4153;-67
2023/05/01 05:47:24;;;;;;;;;;;;;;;20.32;47.75;101413.19;5010381;28;4199;-67
2023/05/01 05:49:51;;;;;;;;;;;;;;;20.33;47.83;101417.53;5019187;28;4317;-67
2023/05/01 05:52:17;;;;;;;;;;;;;;;20.32;47.74;101418.94;4995545;28;4229;-66
2023/05/01 05:54:43;;;;;;;;;;;;;;;20.32;47.87;101416.06;5009233;28;4125;-67
2023/05/01 05:57:10;;;;;;;;;;;;;;;20.32;47.80;101421.81;5019766;28;4077;-67
2023/05/01 05:59:43;;;;;;;;;;;;;;;20.34;47.73;101418.28;5009648;28;4398;-67
2023/05/01 06:02:11;;;;;;;;;;;;;;;20.34;47.75;101416.16;5007744;28;4242;-66
2023/05/01 06:04:37;;;;;;;;;;;;;;;20.33;47.76;101414.66;5012317;28;4285;-67
2023/05/01 06:07:05;;;;;;;;;;;;;;;20.36;47.74;101422.00;5018253;28;4208;-67
2023/05/01 06:09:32;;;;;;;;;;;;;;;20.36;47.70;101422.00;5017247;28;4346;-67
2023/05/01 06:11:59;;;;;;;;;;;;;;;20.36;47.75;101416.25;5010416;28;4040;-67
2023/05/01 06:14:25;;;;;;;;;;;;;;;20.38;47.85;101416.38;5018005;28;4267;-67
2023/05/01 06:16:52;;;;;;;;;;;;;;;20.38;47.85;101416.38;5007730;28;4236;-66
2023/05/01 06:19:18;;;;;;;;;;;;;;;20.37;48.01;101412.00;5006812;28;4178;-67
2023/05/01 06:21:49;;;;;;;;;;;;;;;20.37;47.93;101412.00;5015329;28;4258;-66
2023/05/01 06:24:15;;;;;;;;;;;;;;;20.36;47.83;101410.50;5017670;28;4208;-67
2023/05/01 06:26:46;;;;;;;;;;;;;;;20.35;47.85;101409.03;5017900;28;4175;-67
2023/05/01 06:29:12;;;;;;;;;;;;;;;20.35;47.81;101414.78;5012508;28;4156;-66
2023/05/01 06:31:38;;;;;;;;;;;;;;;20.36;47.80;101406.88;5010189;28;3999;-67
2023/05/01 06:34:05;;;;;;;;;;;;;;;20.35;47.77;101409.03;5008593;28;4211;-67
2023/05/01 06:36:48;;;;;;;;;;;;;;;20.35;47.81;101403.28;5015075;28;4003;-67
2023/05/01 06:39:14;;;;;;;;;;;;;;;20.36;47.82;101404.00;5014922;28;4044;-66
2023/05/01 06:41:41;;;;;;;;;;;;;;;20.34;47.89;101413.28;5010634;28;4072;-67
2023/05/01 06:44:07;;;;;;;;;;;;;;;20.35;48.01;101409.03;5009837;28;4159;-67
2023/05/01 06:46:36;;;;;;;;;;;;;;;20.33;47.80;101400.28;5008538;28;4147;-67
2023/05/01 06:49:02;;;;;;;;;;;;;;;20.34;47.86;101407.53;5017948;28;4208;-67
2023/05/01 06:51:30;;;;;;;;;;;;;;;20.33;47.94;101405.28;5017378;28;4417;-67
2023/05/01 06:53:56;;;;;;;;;;;;;;;20.32;47.86;101404.56;4998802;28;4035;-67
2023/05/01 06:56:23;;;;;;;;;;;;;;;20.32;47.84;101398.81;5010410;28;4097;-67
2023/05/01 06:58:49;;;;;;;;;;;;;;;20.32;47.92;101404.56;5011738;28;4053;-67
2023/05/01 07:01:15;;;;;;;;;;;;;;;20.32;47.86;101403.78;5008023;28;4158;-67
2023/05/01 07:03:42;;;;;;;;;;;;;;;20.31;47.91;101400.16;5008952;28;4368;-67
2023/05/01 07:06:09;;;;;;;;;;;;;;;20.30;47.76;101407.31;5014199;28;4665;-67
2023/05/01 07:08:35;;;;;;;;;;;;;;;20.30;47.83;101407.31;5008478;28;4223;-67
2023/05/01 07:11:01;;;;;;;;;;;;;;;20.28;48.06;101392.81;5008032;28;4539;-67
2023/05/01 07:13:28;;;;;;;;;;;;;;;20.27;47.89;101391.31;5006969;28;4278;-67
2023/05/01 07:15:54;;;;;;;;;;;;;;;20.29;48.10;101394.28;5007580;28;4068;-67
2023/05/01 07:18:21;;;;;;;;;;;;;;;20.12;47.37;101395.53;5011306;28;4178;-67
2023/05/01 07:20:49;;;;;;;;;;;;;;;19.83;44.90;101384.56;5007117;28;4398;-68
2023/05/01 07:23:15;;;;;;;;;;;;;;;19.97;45.74;101381.75;5010506;28;4210;-69
2023/05/01 07:25:43;;;;;;;;;;;;;;;20.13;47.58;101376.16;5013438;28;5438;-71
2023/05/01 07:28:10;;;;;;;;;;;;;;;20.28;47.17;101382.06;5007075;28;4098;-71
2023/05/01 07:30:36;;;;;;;;;;;;;;;20.31;47.09;101385.78;5007846;28;4172;-68
2023/05/01 07:33:04;;;;;;;;;;;;;;;20.29;47.29;101379.91;5007491;28;4238;-68
2023/05/01 07:35:31;;;;;;;;;;;;;;;19.99;45.73;101373.22;5005956;28;4130;-68
2023/05/01 07:37:58;;;;;;;;;;;;;;;20.02;47.46;101381.34;5022819;28;4375;-68
2023/05/01 07:40:24;;;;;;;;;;;;;;;20.15;47.36;101374.13;5006663;28;4562;-68
2023/05/01 07:42:50;;;;;;;;;;;;;;;20.23;46.27;101368.84;5005825;28;4938;-67
2023/05/01 07:45:19;;;;;;;;;;;;;;;20.29;46.59;101368.41;5012521;28;4171;-67
2023/05/01 07:47:46;;;;;;;;;;;;;;;20.30;46.70;101364.91;5008947;28;4161;-67
2023/05/01 07:50:12;;;;;;;;;;;;;;;20.33;46.82;101360.00;5008473;28;4214;-66
2023/05/01 07:52:38;;;;;;;;;;;;;;;20.35;47.04;101360.13;4998343;28;3972;-67
2023/05/01 07:55:06;;;;;;;;;;;;;;;20.33;47.42;101350.66;5003464;28;4121;-69
2023/05/01 07:57:32;;;;;;;;;;;;;;;20.37;47.35;101354.50;5015977;28;4319;-67
2023/05/01 07:59:58;;;;;;;;;;;;;;;20.46;47.94;101339.16;5004789;28;4328;-70
2023/05/01 08:02:25;;;;;;;;;;;;;;;20.44;47.09;101344.81;5004939;28;4145;-72
2023/05/01 08:04:52;;;;;;;;;;;;;;;20.05;45.54;101348.44;5007826;28;4155;-70
2023/05/01 08:07:18;;;;;;;;;;;;;;;19.83;43.09;101339.31;5006075;28;4188;-70
2023/05/01 08:09:45;;;;;;;;;;;;;;;19.69;41.80;101337.78;5008801;28;4041;-67
2023/05/01 08:12:11;;;;;;;;;;;;;;;19.75;40.75;101338.13;5008058;28;4102;-66
2023/05/01 08:14:38;;;;;;;;;;;;;;;19.94;42.98;101334.88;5007575;28;4550;-67
2023/05/01 08:17:04;;;;;;;;;;;;;;;20.08;42.80;101329.19;5010554;28;4287;-67
2023/05/01 08:19:31;;;;;;;;;;;;;;;20.17;43.89;101324.63;5015061;28;4115;-67
2023/05/01 08:21:57;;;;;;;;;;;;;;;20.20;44.42;101323.34;5011619;28;4002;-66
2023/05/01 08:24:23;;;;;;;;;;;;;;;20.22;44.33;101321.31;5013934;28;4311;-67
2023/05/01 08:26:50;;;;;;;;;;;;;;;20.23;44.29;101324.97;5008400;28;4404;-67
2023/05/01 08:29:16;;;;;;;;;;;;;;;20.25;43.94;101325.81;5009455;28;4151;-67
2023/05/01 08:31:43;;;;;;;;;;;;;;;20.25;43.96;101322.22;5010302;28;4111;-68
2023/05/01 08:34:10;;;;;;;;;;;;;;;20.26;44.19;101315.06;5009648;28;4238;-67
2023/05/01 08:36:37;;;;;;;;;;;;;;;20.27;44.06;101322.28;5010070;28;5049;-67
2023/05/01 08:39:04;;;;;;;;;;;;;;;20.27;44.23;101317.31;5006088;28;4333;-67
2023/05/01 08:41:30;;;;;;;;;;;;;;;20.28;44.34;101320.91;5012489;28;3978;-66
2023/05/01 08:44:00;;;;;;;;;;;;;;;20.32;44.44;101323.25;5009069;28;4021;-67
2023/05/01 08:46:45;;;;;;;;;;;;;;;20.30;44.43;101310.28;5019819;28;4142;-67
2023/05/01 08:49:13;;;;;;;;;;;;;;;20.25;44.73;101307.81;5014197;28;4142;-66
2023/05/01 08:51:40;;;;;;;;;;;;;;;20.22;44.87;101309.06;5014878;28;3969;-66
2023/05/01 08:54:07;;;;;;;;;;;;;;;20.19;44.99;101305.34;5004670;28;4482;-66
2023/05/01 08:56:34;;;;;;;;;;;;;;;20.20;44.99;101294.59;5009573;28;4611;-66
2023/05/01 08:59:02;;;;;;;;;;;;;;;20.25;44.93;101302.81;5014056;28;4389;-66
2023/05/01 09:01:28;;;;;;;;;;;;;;;20.27;44.81;101299.28;5009653;28;4171;-66
2023/05/01 09:03:55;;;;;;;;;;;;;;;20.27;45.05;101287.78;5013422;28;4226;-67
2023/05/01 09:06:21;;;;;;;;;;;;;;;20.28;44.85;101283.53;5012385;28;4152;-67
2023/05/01 09:08:47;;;;;;;;;;;;;;;20.28;45.06;101280.66;5015086;28;4004;-67
2023/05/01 09:11:14;;;;;;;;;;;;;;;20.30;44.98;101275.03;5011364;28;4199;-66
2023/05/01 09:13:40;;;;;;;;;;;;;;;20.30;45.19;101275.75;5013625;28;4050;-66
2023/05/01 09:16:07;;;;;;;;;;;;;;;20.32;45.42;101266.50;5019177;28;4112;-67
2023/05/01 09:18:33;;;;;;;;;;;;;;;20.35;45.43;101268.09;5011819;28;4028;-66
2023/05/01 09:21:00;;;;;;;;;;;;;;;20.36;45.58;101260.94;5012528;28;3993;-67
2023/05/01 09:23:27;;;;;;;;;;;;;;;20.33;45.81;101259.34;5015315;28;4250;-66
2023/05/01 09:25:53;;;;;;;;;;;;;;;20.34;45.77;101257.97;5015740;28;4151;-67
2023/05/01 09:28:38;;;;;;;;;;;;;;;20.36;45.87;101257.31;5008074;28;4140;-66
2023/05/01 09:31:15;;;;;;;;;;;;;;;20.35;45.95;101247.94;5011947;28;4211;-67
2023/05/01 09:33:49;;;;;;;;;;;;;;;20.37;46.15;101245.19;5008057;28;4111;-66
2023/05/01 09:36:16;;;;;;;;;;;;;;;20.35;46.46;101247.94;5011712;28;4253;-66
2023/05/01 09:38:43;;;;;;;;;;;;;;;20.38;46.48;101240.91;5016611;28;4677;-68
2023/05/01 09:41:09;;;;;;;;;;;;;;;20.38;46.59;101240.19;5011405;28;4338;-66
2023/05/01 09:43:35;;;;;;;;;;;;;;;20.40;46.78;101223.75;5007692;28;4185;-70
2023/05/01 09:46:04;;;;;;;;;;;;;;;20.28;46.75;101223.88;5007780;28;4097;-70
2023/05/01 09:48:30;;;;;;;;;;;;;;;20.17;44.14;101226.88;5006904;28;4519;-69
2023/05/01 09:51:00;;;;;;;;;;;;;;;20.23;45.05;101218.56;5012910;28;4218;-66
2023/05/01 09:53:36;;;;;;;;;;;;;;;20.21;44.25;101213.44;5010682;28;4282;-66
2023/05/01 09:56:03;;;;;;;;;;;;;;;20.17;45.13;101215.34;5009208;28;4325;-65
2023/05/01 09:58:29;;;;;;;;;;;;;;;20.23;44.82;101207.06;5007607;28;4144;-66
2023/05/01 10:00:56;;;;;;;;;;;;;;;20.29;44.28;101201.63;5006779;28;4221;-65
2023/05/01 10:03:22;;;;;;;;;;;;;;;20.28;44.05;101191.50;5007275;28;4183;-65
2023/05/01 10:05:49;;;;;;;;;;;;;;;20.33;43.79;101196.06;5008842;28;4644;-65
2023/05/01 10:08:15;;;;;;;;;;;;;;;20.30;43.97;101197.38;5011392;28;4179;-65
2023/05/01 10:10:46;;;;;;;;;;;;;;;20.25;44.15;101193.53;5010167;28;4172;-65
2023/05/01 10:13:13;;;;;;;;;;;;;;;20.24;44.07;101188.41;5007205;28;4229;-64
2023/05/01 10:15:39;;;;;;;;;;;;;;;20.29;43.93;101187.22;5008345;28;4406;-65
2023/05/01 10:18:06;;;;;;;;;;;;;;;20.18;44.09;101188.09;5010338;28;4216;-64
2023/05/01 10:20:32;;;;;;;;;;;;;;;20.15;44.02;101184.38;5011863;28;4053;-64
2023/05/01 10:22:59;;;;;;;;;;;;;;;20.17;43.65;101177.97;5011357;28;4357;-66
2023/05/01 10:25:25;;;;;;;;;;;;;;;20.26;42.76;101183.50;5007644;28;3895;-67
2023/05/01 10:27:52;;;;;;;;;;;;;;;20.35;43.18;101175.31;5008325;28;4173;-67
2023/05/01 10:30:18;;;;;;;;;;;;;;;20.35;43.32;101170.31;5021675;28;4412;-69
2023/05/01 10:32:44;;;;;;;;;;;;;;;20.33;43.27;101170.19;5011388;28;4163;-66
2023/05/01 10:35:13;;;;;;;;;;;;;;;20.32;43.43;101157.22;5008723;28;4181;-66
2023/05/01 10:37:44;;;;;;;;;;;;;;;20.35;42.61;101160.94;5004945;28;5040;-67
2023/05/01 10:40:29;;;;;;;;;;;;;;;20.37;43.08;101147.41;5010120;28;4203;-67
2023/05/01 10:43:11;;;;;;;;;;;;;;;20.25;43.24;101144.66;5006783;28;4099;-65
2023/05/01 10:45:38;;;;;;;;;;;;;;;20.21;43.03;101135.06;5007618;28;4070;-66
2023/05/01 10:48:04;;;;;;;;;;;;;;;20.21;43.05;101135.06;5003642;28;4055;-67
2023/05/01 10:50:31;;;;;;;;;;;;;;;20.18;40.12;101136.34;5007485;28;3985;-70
2023/05/01 10:53:16;;;;;;;;;;;;;;;20.00;40.27;101122.50;5009208;28;4082;-67
2023/05/01 10:55:45;;;;;;;;;;;;;;;20.07;38.18;101135.06;5009677;28;4126;-67
2023/05/01 10:58:12;;;;;;;;;;;;;;;20.17;40.85;101123.34;5005357;28;4404;-67
2023/05/01 11:00:39;;;;;;;;;;;;;;;20.32;39.97;101122.69;5006128;28;4155;-66
2023/05/01 11:03:20;;;;;;;;;;;;;;;20.43;39.92;101121.81;5009253;28;4371;-67
2023/05/01 11:05:59;;;;;;;;;;;;;;;20.44;40.42;101120.44;5009953;28;4122;-67
2023/05/01 11:08:33;;;;;;;;;;;;;;;20.47;40.40;101116.25;5008932;28;4126;-67
2023/05/01 11:11:18;;;;;;;;;;;;;;;20.49;40.59;101116.34;5006628;28;4202;-67
2023/05/01 11:13:54;;;;;;;;;;;;;;;20.51;41.28;101110.72;5005662;28;4462;-68
2023/05/01 11:16:36;;;;;;;;;;;;;;;20.49;41.78;101099.09;5004288;28;4199;-67
2023/05/01 11:19:23;;;;;;;;;;;;;;;20.54;42.10;101084.91;5001236;28;4095;-69
2023/05/01 11:21:53;;;;;;;;;;;;;;;20.46;42.43;101097.53;4997060;28;5121;-68
2023/05/01 11:24:19;;;;;;;;;;;;;;;20.49;42.71;101090.47;5003508;28;4129;-67
2023/05/01 11:26:46;;;;;;;;;;;;;;;20.50;42.78;101086.22;5004333;28;4200;-68
2023/05/01 11:29:12;;;;;;;;;;;;;;;20.50;42.70;101073.94;5008399;28;4815;-76
2023/05/01 11:31:38;;;;;;;;;;;;;;;20.39;42.93;101084.22;5003110;28;4197;-67
2023/05/01 11:34:08;;;;;;;;;;;;;;;20.35;42.56;101075.38;4994443;28;4132;-68
2023/05/01 11:36:48;;;;;;;;;;;;;;;20.38;43.21;101065.47;5009947;28;4129;-67
2023/05/01 11:39:14;;;;;;;;;;;;;;;20.41;43.27;101064.19;5004880;28;4116;-68
2023/05/01 11:41:41;;;;;;;;;;;;;;;20.43;42.96;101052.78;5004936;28;4100;-68
2023/05/01 11:44:07;;;;;;;;;;;;;;;20.46;43.23;101050.75;5005898;28;4140;-67
2023/05/01 11:46:34;;;;;;;;;;;;;;;20.48;42.91;101057.34;5007611;28;5279;-67
2023/05/01 11:49:00;;;;;;;;;;;;;;;20.52;42.85;101048.16;5000911;28;4066;-67
2023/05/01 11:51:27;;;;;;;;;;;;;;;20.54;42.84;101050.41;5006121;28;4191;-67
2023/05/01 11:53:58;;;;;;;;;;;;;;;20.56;43.05;101047.63;5005889;28;4337;-67
2023/05/01 11:56:25;;;;;;;;;;;;;;;20.55;43.30;101034.63;5034718;28;4120;-71
2023/05/01 11:58:53;;;;;;;;;;;;;;;20.59;43.65;101034.84;5006382;28;4001;-68
2023/05/01 12:01:19;;;;;;;;;;;;;;;20.60;43.55;101024.84;5005532;28;4179;-68
2023/05/01 12:03:46;;;;;;;;;;;;;;;20.61;43.43;101027.06;5007261;28;4160;-67
2023/05/01 12:06:12;;;;;;;;;;;;;;;20.61;43.42;101015.53;5004954;28;4222;-66
2023/05/01 12:08:42;;;;;;;;;;;;;;;20.63;43.40;101020.66;5003368;28;4216;-67
2023/05/01 12:11:09;;;;;;;;;;;;;;;20.59;43.51;101017.56;5007647;28;4045;-67
2023/05/01 12:13:35;;;;;;;;;;;;;;;20.65;43.61;101012.13;5008433;28;4277;-69
2023/05/01 12:16:03;;;;;;;;;;;;;;;20.79;47.30;101012.06;5005891;28;4060;-71
2023/05/01 12:18:29;;;;;;;;;;;;;;;21.26;46.93;101006.31;5009112;28;3937;-67
2023/05/01 12:20:55;;;;;;;;;;;;;;;21.30;44.99;101011.50;5005702;28;4009;-72
2023/05/01 12:23:32;;;;;;;;;;;;;;;21.32;42.92;101009.44;4997253;28;4071;-71
2023/05/01 12:25:59;;;;;;;;;;;;;;;21.30;40.80;101003.63;5002654;28;4091;-72
2023/05/01 12:28:26;;;;;;;;;;;;;;;21.23;39.49;101007.59;5005369;28;4483;-72
2023/05/01 12:30:56;;;;;;;;;;;;;;;21.25;39.33;100998.31;4999826;28;4313;-74
2023/05/01 12:33:22;;;;;;;;;;;;;;;21.04;35.50;101008.19;5010494;28;4607;-72
2023/05/01 12:35:49;;;;;;;;;;;;;;;21.17;39.15;100997.97;5006651;28;4029;-71
2023/05/01 12:38:16;;;;;;;;;;;;;;;21.20;39.65;100985.88;5001620;28;4501;-77
2023/05/01 12:40:49;;;;;;;;;;;;;;;21.46;38.14;100994.22;5007932;28;4097;-72
2023/05/01 12:43:16;;;;;;;;;;;;;;;21.47;38.48;100995.72;4995877;28;4249;-72
2023/05/01 12:45:42;;;;;;;;;;;;;;;21.45;39.31;100987.72;5002706;28;4549;-72
2023/05/01 12:48:10;;;;;;;;;;;;;;;21.41;39.00;100986.81;5006829;28;4645;-73
2023/05/01 12:50:36;;;;;;;;;;;;;;;21.55;38.48;100978.78;5006801;28;3943;-73
2023/05/01 12:53:03;;;;;;;;;;;;;;;21.43;38.84;100978.25;5004152;28;4202;-72